Terminal Aerodrome Forecast
Issued by NWS Newport/Morehead City, NC

Home | Current Version | Previous Version | Graphics & Text | Print | Product List | Glossary On
Versions: 1 2 3 4 5 6 7 8 9 10 11 12 13 14 15 16 17 18 19 20
716
FTUS42 KMHX 060537
TAFEWN
TAF
KEWN 060537Z 0606/0706 05007KT 5SM -RA BR SCT025 OVC050
     FM061100 07011G17KT 3SM RA BR OVC006
     FM061800 20011G18KT 5SM -RA BR OVC007
     FM062100 25010G15KT P6SM VCSH OVC007
     FM062300 29008KT P6SM BKN007=

USA.gov is the U.S. government's official web portal to all federal, state and local government web resources and services.